Time;durP1;ratioP1;P1;durP2;ratioP2;P2;SDS_P1;SDS_P2;PMS_P1;PMS_P2;Temp;Humidity;BMP_temperature;BMP_pressure;BME280_temperature;BME280_humidity;BME280_pressure;Samples;Min_cycle;Max_cycle;Signal;HPM_P1;HPM_P2
2023/05/21 00:00:50;;;;;;;917.10;850.03;;;14.00;36.10;;;;;;5023683;22;20413;-70
2023/05/21 00:03:16;;;;;;;441.10;413.43;;;14.00;36.70;;;;;;5004883;28;20176;-71
2023/05/21 00:05:43;;;;;;;535.37;497.43;;;14.00;36.60;;;;;;5008806;28;20411;-69
2023/05/21 00:08:09;;;;;;;1029.30;952.37;;;14.00;36.70;;;;;;5008577;28;20200;-70
2023/05/21 00:10:35;;;;;;;705.40;653.37;;;14.00;37.40;;;;;;5023389;28;20496;-71
2023/05/21 00:13:01;;;;;;;332.33;311.53;;;14.00;36.70;;;;;;5024332;28;20241;-70
2023/05/21 00:15:26;;;;;;;356.40;333.77;;;13.90;37.60;;;;;;5025510;28;20623;-71
2023/05/21 00:17:52;;;;;;;618.80;578.27;;;13.90;37.50;;;;;;5024660;28;20538;-71
2023/05/21 00:20:17;;;;;;;975.10;902.03;;;13.80;37.80;;;;;;5024227;28;20212;-71
2023/05/21 00:22:43;;;;;;;543.97;507.67;;;13.90;38.00;;;;;;5011009;28;20188;-71
2023/05/21 00:25:10;;;;;;;846.33;783.10;;;13.80;38.20;;;;;;5005672;28;20258;-70
2023/05/21 00:27:36;;;;;;;350.70;328.80;;;13.70;38.80;;;;;;5005736;28;20179;-70
2023/05/21 00:30:05;;;;;;;711.87;660.73;;;13.70;39.10;;;;;;5005676;28;20519;-72
2023/05/21 00:32:30;;;;;;;813.30;755.50;;;13.70;38.80;;;;;;5003183;28;20436;-71
2023/05/21 00:34:57;;;;;;;479.00;446.83;;;13.70;38.70;;;;;;5023735;28;20425;-72
2023/05/21 00:37:23;;;;;;;822.77;762.83;;;13.70;39.10;;;;;;5023495;28;20184;-71
2023/05/21 00:39:49;;;;;;;843.77;780.20;;;13.70;38.80;;;;;;5022095;28;20437;-71
2023/05/21 00:42:16;;;;;;;559.20;522.30;;;13.70;39.50;;;;;;5021185;28;20427;-71
2023/05/21 00:44:45;;;;;;;669.60;623.37;;;13.60;39.50;;;;;;5020869;28;20419;-71
2023/05/21 00:47:12;;;;;;;859.37;797.97;;;13.60;40.30;;;;;;5003182;28;20420;-71
2023/05/21 00:49:38;;;;;;;942.03;872.60;;;13.60;40.60;;;;;;5003071;28;20452;-71
2023/05/21 00:52:04;;;;;;;876.27;811.67;;;13.50;40.90;;;;;;5001883;28;20439;-70
2023/05/21 00:54:30;;;;;;;945.87;875.20;;;13.50;41.40;;;;;;5000826;28;20194;-70
2023/05/21 00:56:56;;;;;;;828.93;767.67;;;13.50;41.30;;;;;;5002354;28;20420;-70
2023/05/21 00:59:23;;;;;;;824.57;764.43;;;13.50;41.40;;;;;;5022268;28;20797;-69
2023/05/21 01:01:54;;;;;;;745.90;693.70;;;13.50;41.90;;;;;;5020898;28;20500;-69
2023/05/21 01:04:22;;;;;;;639.50;593.77;;;13.50;41.60;;;;;;5021143;28;20453;-68
2023/05/21 01:06:47;;;;;;;715.90;665.50;;;13.50;41.90;;;;;;5021685;28;20512;-70
2023/05/21 01:09:13;;;;;;;996.23;921.77;;;13.40;42.60;;;;;;5022594;28;21015;-68
2023/05/21 01:11:48;;;;;;;907.57;841.50;;;13.40;42.90;;;;;;5002085;28;20198;-69
2023/05/21 01:14:15;;;;;;;326.43;306.37;;;13.40;43.40;;;;;;5002961;28;20179;-70
2023/05/21 01:16:43;;;;;;;650.13;604.10;;;13.30;44.20;;;;;;5002976;28;20934;-70
2023/05/21 01:19:12;;;;;;;640.20;597.27;;;13.20;44.10;;;;;;5001808;28;20927;-69
2023/05/21 01:21:43;;;;;;;942.80;874.53;;;13.20;44.20;;;;;;5007493;28;20447;-70
2023/05/21 01:24:09;;;;;;;691.33;641.87;;;13.30;44.20;;;;;;5022621;28;20427;-69
2023/05/21 01:26:37;;;;;;;831.90;773.03;;;13.20;44.90;;;;;;5020767;28;20452;-70
2023/05/21 01:29:11;;;;;;;990.17;919.13;;;13.20;44.80;;;;;;5022262;28;20206;-69
2023/05/21 01:31:55;;;;;;;543.60;508.50;;;13.20;46.00;;;;;;5019748;28;20441;-70
2023/05/21 01:34:27;;;;;;;1019.97;945.57;;;13.20;46.20;;;;;;5012588;28;20461;-70
2023/05/21 01:37:07;;;;;;;845.57;783.53;;;13.20;46.70;;;;;;4982836;28;20420;-70
2023/05/21 01:39:37;;;;;;;416.30;389.70;;;13.20;47.10;;;;;;4981842;28;20435;-70
2023/05/21 01:42:07;;;;;;;398.47;374.17;;;13.10;47.20;;;;;;4982652;28;20490;-72
2023/05/21 01:44:35;;;;;;;562.70;524.70;;;13.00;47.90;;;;;;4983711;28;20971;-69
2023/05/21 01:47:02;;;;;;;868.63;805.67;;;13.00;48.50;;;;;;5014920;28;20441;-69
2023/05/21 01:49:28;;;;;;;604.30;564.40;;;13.00;49.60;;;;;;5022325;28;20461;-69
2023/05/21 01:51:54;;;;;;;718.63;671.23;;;13.00;49.10;;;;;;5021096;28;20454;-68
2023/05/21 01:54:20;;;;;;;675.77;629.83;;;13.00;49.90;;;;;;5020652;28;20427;-69
2023/05/21 01:56:48;;;;;;;706.57;657.57;;;13.00;49.90;;;;;;5022337;28;20190;-70
2023/05/21 01:59:14;;;;;;;842.63;784.23;;;13.00;51.10;;;;;;5004232;28;20828;-70
2023/05/21 02:01:40;;;;;;;879.40;817.10;;;13.00;51.80;;;;;;5001409;28;20536;-69
2023/05/21 02:04:05;;;;;;;534.60;500.50;;;12.90;53.40;;;;;;5001194;28;20195;-70
2023/05/21 02:06:31;;;;;;;919.13;854.10;;;12.90;53.90;;;;;;5002484;28;20494;-70
2023/05/21 02:08:56;;;;;;;689.63;643.00;;;12.90;54.30;;;;;;5002132;28;20205;-70
2023/05/21 02:11:22;;;;;;;633.57;590.83;;;12.90;55.60;;;;;;5020273;28;20194;-69
2023/05/21 02:13:48;;;;;;;729.70;677.43;;;12.90;57.00;;;;;;5021924;28;20238;-69
2023/05/21 02:16:14;;;;;;;896.57;832.30;;;12.90;61.20;;;;;;5022235;28;20446;-71
2023/05/21 02:18:43;;;;;;;586.47;550.93;;;12.90;61.50;;;;;;5023965;28;20184;-69
2023/05/21 02:21:12;;;;;;;757.87;706.10;;;12.90;63.30;;;;;;5024249;28;20443;-70
2023/05/21 02:23:38;;;;;;;386.30;364.03;;;12.80;66.00;;;;;;4993798;28;20841;-70
2023/05/21 02:26:03;;;;;;;866.20;804.83;;;12.80;64.10;;;;;;5005585;28;20430;-69
2023/05/21 02:28:29;;;;;;;414.67;387.73;;;12.80;64.40;;;;;;5003198;28;20188;-69
2023/05/21 02:30:55;;;;;;;507.17;476.03;;;12.80;64.40;;;;;;5003543;28;20203;-69
2023/05/21 02:33:22;;;;;;;932.70;866.07;;;12.80;65.40;;;;;;5000494;28;20555;-68
2023/05/21 02:35:48;;;;;;;926.83;860.40;;;12.70;66.30;;;;;;5024094;28;20917;-70
2023/05/21 02:38:18;;;;;;;703.73;654.87;;;12.70;66.20;;;;;;5022389;28;20445;-69
2023/05/21 02:40:46;;;;;;;708.87;659.87;;;12.70;67.30;;;;;;5023551;28;20195;-70
2023/05/21 02:43:11;;;;;;;682.20;637.67;;;12.70;69.10;;;;;;5023475;28;20416;-69
2023/05/21 02:45:37;;;;;;;782.30;727.87;;;12.60;70.40;;;;;;5020448;28;20430;-69
2023/05/21 02:48:03;;;;;;;561.90;527.93;;;12.60;75.10;;;;;;5022965;28;20237;-69
2023/05/21 02:50:28;;;;;;;836.23;778.80;;;12.50;70.80;;;;;;5023292;28;20213;-70
2023/05/21 02:52:54;;;;;;;561.43;526.17;;;12.50;72.10;;;;;;5023201;28;20199;-71
2023/05/21 02:55:20;;;;;;;806.83;751.53;;;12.50;72.30;;;;;;5021898;28;20184;-71
2023/05/21 02:57:52;;;;;;;543.97;511.10;;;12.50;75.00;;;;;;5016317;28;20426;-69
2023/05/21 03:00:17;;;;;;;761.67;710.17;;;12.40;73.50;;;;;;5003287;28;20204;-70
2023/05/21 03:02:43;;;;;;;611.80;572.13;;;12.40;75.80;;;;;;5001287;28;20521;-69
2023/05/21 03:05:09;;;;;;;787.13;731.53;;;12.30;76.90;;;;;;5003876;28;20200;-69
2023/05/21 03:07:35;;;;;;;582.37;544.30;;;12.20;77.60;;;;;;5002143;28;20185;-69
2023/05/21 03:10:00;;;;;;;767.13;715.63;;;12.20;78.30;;;;;;5011485;28;20471;-70
2023/05/21 03:12:26;;;;;;;522.67;490.37;;;12.30;76.20;;;;;;5022158;28;20630;-69
2023/05/21 03:14:52;;;;;;;814.97;756.80;;;12.30;66.80;;;;;;5022805;28;20202;-69
2023/05/21 03:17:17;;;;;;;624.93;583.57;;;12.30;65.20;;;;;;5022843;28;20527;-68
2023/05/21 03:19:43;;;;;;;784.23;729.07;;;12.20;66.00;;;;;;5023071;28;20178;-70
2023/05/21 03:22:12;;;;;;;672.07;626.43;;;12.20;68.50;;;;;;5013424;28;20224;-69
2023/05/21 03:24:38;;;;;;;711.50;663.50;;;12.20;73.50;;;;;;5005384;28;20432;-70
2023/05/21 03:27:10;;;;;;;718.73;669.43;;;12.10;71.70;;;;;;5006029;28;20427;-68
2023/05/21 03:29:38;;;;;;;493.57;463.83;;;12.20;69.20;;;;;;5005292;28;20452;-68
2023/05/21 03:32:05;;;;;;;738.90;686.53;;;12.10;71.60;;;;;;5001257;28;20455;-68
2023/05/21 03:34:33;;;;;;;730.70;681.87;;;12.10;74.60;;;;;;5014714;28;20434;-69
2023/05/21 03:36:59;;;;;;;591.20;554.17;;;12.10;73.40;;;;;;5019263;28;20430;-69
2023/05/21 03:39:24;;;;;;;700.10;651.67;;;12.10;75.60;;;;;;5020959;28;20444;-69
2023/05/21 03:41:50;;;;;;;637.17;594.87;;;12.10;70.20;;;;;;5019066;28;20489;-69
2023/05/21 03:44:15;;;;;;;448.83;421.30;;;12.10;73.50;;;;;;5019266;28;20180;-69
2023/05/21 03:46:41;;;;;;;722.67;670.33;;;12.00;72.40;;;;;;5017393;28;20215;-68
2023/05/21 03:49:07;;;;;;;551.33;516.47;;;12.10;71.40;;;;;;5021309;28;20205;-69
2023/05/21 03:51:32;;;;;;;809.73;750.33;;;12.00;73.30;;;;;;5020960;28;20192;-69
2023/05/21 03:53:58;;;;;;;627.17;586.20;;;11.90;75.70;;;;;;5021138;28;20183;-70
2023/05/21 03:56:24;;;;;;;417.30;392.57;;;11.90;75.50;;;;;;5021494;28;20249;-70
2023/05/21 03:58:50;;;;;;;596.77;558.17;;;11.90;71.60;;;;;;5002796;28;20526;-70
2023/05/21 04:01:16;;;;;;;737.00;684.50;;;12.00;71.70;;;;;;5000890;28;20483;-69
2023/05/21 04:03:42;;;;;;;550.60;515.17;;;12.00;73.40;;;;;;4999463;28;20182;-70
2023/05/21 04:06:08;;;;;;;639.73;596.30;;;12.10;71.30;;;;;;4999534;28;20450;-69
2023/05/21 04:08:35;;;;;;;855.83;794.10;;;12.10;69.20;;;;;;4999115;28;20180;-70
2023/05/21 04:11:01;;;;;;;353.00;332.73;;;12.10;69.00;;;;;;5018610;28;20446;-70
2023/05/21 04:13:27;;;;;;;672.27;627.77;;;12.10;69.30;;;;;;5020022;28;20438;-70
2023/05/21 04:15:53;;;;;;;586.50;550.30;;;12.20;69.10;;;;;;5022614;28;20174;-70
2023/05/21 04:18:19;;;;;;;685.90;638.67;;;12.20;65.70;;;;;;5020340;28;20429;-70
2023/05/21 04:20:45;;;;;;;369.20;348.47;;;12.20;67.10;;;;;;5022135;28;20427;-70
2023/05/21 04:23:10;;;;;;;742.50;688.67;;;12.30;70.90;;;;;;5003769;28;20443;-70
2023/05/21 04:25:37;;;;;;;639.90;597.47;;;12.40;67.10;;;;;;5000871;28;20590;-70
2023/05/21 04:28:03;;;;;;;708.07;658.17;;;12.50;73.80;;;;;;5001726;28;20181;-69
2023/05/21 04:30:29;;;;;;;667.50;621.70;;;12.50;69.00;;;;;;5008275;28;20494;-69
2023/05/21 04:32:54;;;;;;;769.17;715.07;;;12.60;66.00;;;;;;5007979;28;20432;-69
2023/05/21 04:35:20;;;;;;;691.73;646.20;;;12.70;64.40;;;;;;5031219;28;20193;-70
2023/05/21 04:37:46;;;;;;;664.83;623.40;;;12.80;62.90;;;;;;5028938;28;20275;-69
2023/05/21 04:40:17;;;;;;;884.70;820.17;;;12.80;61.20;;;;;;5026953;28;20639;-70
2023/05/21 04:42:47;;;;;;;737.77;687.17;;;12.90;62.40;;;;;;5026588;28;20212;-70
2023/05/21 04:45:12;;;;;;;734.20;683.50;;;13.00;61.20;;;;;;5021596;28;20411;-70
2023/05/21 04:47:38;;;;;;;977.67;905.53;;;13.10;62.20;;;;;;5024257;28;20449;-70
2023/05/21 04:50:04;;;;;;;668.73;624.20;;;13.20;64.20;;;;;;5024561;28;20222;-69
2023/05/21 04:52:30;;;;;;;368.10;346.30;;;13.30;63.80;;;;;;5025187;28;20178;-68
2023/05/21 04:54:56;;;;;;;531.40;500.53;;;13.30;61.40;;;;;;5025288;28;20413;-68
2023/05/21 04:57:23;;;;;;;811.63;754.40;;;13.40;58.60;;;;;;5020728;28;20178;-69
2023/05/21 04:59:49;;;;;;;641.03;598.60;;;13.50;56.80;;;;;;5003428;28;20542;-69
2023/05/21 05:02:15;;;;;;;476.33;446.57;;;13.60;56.80;;;;;;5004196;28;20453;-69
2023/05/21 05:04:42;;;;;;;969.73;897.67;;;13.70;54.60;;;;;;5003536;28;20668;-70
2023/05/21 05:07:08;;;;;;;749.63;697.90;;;13.80;53.70;;;;;;5004285;28;20207;-70
2023/05/21 05:09:34;;;;;;;861.40;798.83;;;13.80;51.90;;;;;;5008068;28;20458;-69
2023/05/21 05:11:59;;;;;;;419.87;391.53;;;13.90;52.40;;;;;;5021404;28;20212;-69
2023/05/21 05:14:25;;;;;;;915.20;847.47;;;13.90;51.40;;;;;;5023887;28;20178;-69
2023/05/21 05:16:51;;;;;;;808.20;749.20;;;14.00;51.80;;;;;;5021695;28;20667;-69
2023/05/21 05:19:16;;;;;;;885.43;819.63;;;14.10;51.40;;;;;;5021048;28;20192;-70
2023/05/21 05:21:42;;;;;;;933.07;864.30;;;14.20;51.90;;;;;;5014483;28;20286;-69
2023/05/21 05:24:07;;;;;;;991.93;918.10;;;14.30;52.40;;;;;;5003914;28;20187;-70
2023/05/21 05:26:33;;;;;;;976.37;903.77;;;14.50;52.50;;;;;;5003668;28;20176;-69
2023/05/21 05:28:59;;;;;;;801.03;743.00;;;14.60;49.90;;;;;;5002504;28;20204;-68
2023/05/21 05:31:24;;;;;;;467.57;437.60;;;14.70;49.30;;;;;;5001616;28;20227;-69
2023/05/21 05:33:50;;;;;;;947.17;876.23;;;14.70;49.70;;;;;;5011271;28;20183;-69
2023/05/21 05:36:15;;;;;;;713.70;662.57;;;14.90;50.00;;;;;;5021747;28;20179;-69
2023/05/21 05:38:41;;;;;;;684.80;634.73;;;15.00;49.60;;;;;;5019316;28;20641;-70
2023/05/21 05:41:06;;;;;;;745.07;690.50;;;15.10;49.40;;;;;;5023251;28;20568;-69
2023/05/21 05:43:32;;;;;;;866.43;800.03;;;15.20;47.00;;;;;;5018826;28;20555;-69
2023/05/21 05:45:58;;;;;;;548.63;511.40;;;15.30;46.00;;;;;;5010893;28;20172;-69
2023/05/21 05:48:24;;;;;;;871.13;804.67;;;15.40;43.60;;;;;;4999671;28;20187;-69
2023/05/21 05:50:53;;;;;;;632.53;588.70;;;15.50;41.10;;;;;;5002648;28;20968;-69
2023/05/21 05:53:19;;;;;;;580.47;541.47;;;15.70;41.20;;;;;;5002026;28;20638;-69
2023/05/21 05:55:45;;;;;;;597.50;559.87;;;15.80;41.70;;;;;;5001454;28;20515;-70
2023/05/21 05:58:13;;;;;;;841.70;779.97;;;16.00;41.20;;;;;;5015423;28;20459;-70
2023/05/21 06:00:38;;;;;;;577.87;542.50;;;16.20;41.20;;;;;;5040137;22;20337;-69
2023/05/21 06:03:04;;;;;;;994.10;918.07;;;16.30;42.40;;;;;;4992507;28;20574;-68
2023/05/21 06:05:30;;;;;;;658.97;616.27;;;16.50;40.90;;;;;;4993046;28;20172;-68
2023/05/21 06:07:55;;;;;;;755.60;702.60;;;16.80;39.00;;;;;;4993052;28;20578;-69
2023/05/21 06:10:21;;;;;;;750.13;701.87;;;17.00;37.20;;;;;;5008609;28;20218;-68
2023/05/21 06:12:47;;;;;;;865.30;799.53;;;17.30;37.40;;;;;;5012178;28;20377;-68
2023/05/21 06:15:13;;;;;;;918.47;850.70;;;17.60;36.60;;;;;;5012172;28;20176;-68
2023/05/21 06:17:39;;;;;;;748.40;698.33;;;18.00;33.50;;;;;;5012171;28;20192;-68
2023/05/21 06:20:07;;;;;;;690.57;642.37;;;18.40;32.00;;;;;;5010810;28;20505;-68
2023/05/21 06:22:33;;;;;;;822.33;758.47;;;18.70;29.70;;;;;;4993807;28;20234;-68
2023/05/21 06:24:59;;;;;;;795.90;736.43;;;19.00;29.10;;;;;;4992362;28;20424;-67
2023/05/21 06:27:24;;;;;;;729.77;675.40;;;19.60;28.60;;;;;;4992504;28;20180;-69
2023/05/21 06:29:50;;;;;;;529.70;495.63;;;20.00;26.60;;;;;;4991017;28;20223;-69
2023/05/21 06:32:15;;;;;;;811.30;750.93;;;20.40;24.60;;;;;;4991895;28;20196;-68
2023/05/21 06:34:41;;;;;;;722.40;670.53;;;20.60;25.30;;;;;;5009879;28;20206;-68
2023/05/21 06:37:06;;;;;;;648.00;603.43;;;21.30;23.20;;;;;;5011599;28;20187;-69
2023/05/21 06:39:32;;;;;;;681.63;634.03;;;22.20;21.80;;;;;;5011769;28;20637;-70
2023/05/21 06:41:57;;;;;;;738.13;683.60;;;23.00;19.20;;;;;;5011507;28;20210;-70
2023/05/21 06:44:23;;;;;;;829.03;764.33;;;24.40;16.40;;;;;;4996864;28;20448;-69
2023/05/21 06:46:49;;;;;;;649.03;605.50;;;25.50;12.00;;;;;;5005699;28;20675;-70
2023/05/21 06:49:15;;;;;;;616.80;574.90;;;26.50;11.10;;;;;;5007990;28;20516;-67
2023/05/21 06:51:40;;;;;;;758.30;701.50;;;26.50;10.30;;;;;;5007533;28;20588;-70
2023/05/21 06:54:06;;;;;;;625.37;583.13;;;26.90;9.50;;;;;;5007500;28;20186;-70
2023/05/21 06:56:31;;;;;;;821.43;756.47;;;27.70;7.80;;;;;;4999022;28;20184;-69
2023/05/21 06:58:58;;;;;;;647.53;604.37;;;28.10;7.40;;;;;;5007365;28;20229;-71
2023/05/21 07:01:23;;;;;;;726.13;674.00;;;28.50;7.80;;;;;;4995009;28;20673;-71
2023/05/21 07:03:49;;;;;;;749.93;691.70;;;28.60;7.30;;;;;;4991448;28;20439;-71
2023/05/21 07:06:15;;;;;;;742.03;686.60;;;29.60;5.40;;;;;;5006829;28;20184;-71
2023/05/21 07:08:41;;;;;;;770.13;715.27;;;29.40;4.00;;;;;;5006999;28;20210;-72
2023/05/21 07:11:06;;;;;;;856.43;787.40;;;29.60;4.10;;;;;;5008337;28;20439;-74
2023/05/21 07:13:34;;;;;;;921.53;843.87;;;29.20;3.90;;;;;;5007284;28;20475;-70
2023/05/21 07:15:59;;;;;;;840.53;769.60;;;28.90;5.60;;;;;;4991176;28;20195;-71
2023/05/21 07:18:25;;;;;;;738.67;686.27;;;29.40;5.20;;;;;;4988387;28;20423;-71
2023/05/21 07:20:50;;;;;;;737.03;684.77;;;30.60;3.40;;;;;;4987044;28;20207;-70
2023/05/21 07:23:16;;;;;;;849.07;779.57;;;31.00;3.20;;;;;;4985586;28;20192;-71
2023/05/21 07:25:41;;;;;;;784.27;726.07;;;31.60;2.60;;;;;;4987947;28;20323;-71
2023/05/21 07:28:07;;;;;;;710.17;659.17;;;31.30;9.90;;;;;;5005559;28;20223;-71
2023/05/21 07:30:32;;;;;;;704.33;654.60;;;30.40;6.40;;;;;;4994661;28;20298;-70
2023/05/21 07:32:58;;;;;;;801.17;738.80;;;30.60;6.80;;;;;;4987711;28;20192;-70
2023/05/21 07:35:23;;;;;;;796.97;733.87;;;31.80;5.30;;;;;;4987174;28;20193;-70
2023/05/21 07:37:49;;;;;;;873.87;795.67;;;32.20;4.00;;;;;;4987650;28;20193;-70
2023/05/21 07:40:15;;;;;;;764.10;704.27;;;32.80;1.20;;;;;;5004682;28;20568;-70
2023/05/21 07:42:40;;;;;;;802.63;736.30;;;31.70;1.90;;;;;;5006885;28;20616;-71
2023/05/21 07:45:06;;;;;;;800.43;742.90;;;32.00;4.30;;;;;;5009725;28;20514;-69
2023/05/21 07:47:32;;;;;;;787.73;725.73;;;32.10;2.00;;;;;;5011238;28;20223;-70
2023/05/21 07:49:57;;;;;;;818.23;753.10;;;32.60;1.00;;;;;;5009225;28;20553;-70
2023/05/21 07:52:23;;;;;;;739.07;683.00;;;30.90;2.00;;;;;;4991472;28;20205;-69
2023/05/21 07:54:49;;;;;;;750.87;693.33;;;32.10;1.60;;;;;;4991216;28;20192;-69
2023/05/21 07:57:15;;;;;;;811.93;748.10;;;32.50;3.00;;;;;;4991130;28;20412;-70
2023/05/21 07:59:40;;;;;;;664.10;619.20;;;32.60;1.50;;;;;;4991831;28;20203;-70
2023/05/21 08:02:06;;;;;;;773.40;712.23;;;33.30;2.40;;;;;;4993092;28;20216;-70
2023/05/21 08:04:32;;;;;;;737.77;685.20;;;32.50;4.20;;;;;;5010513;28;20217;-71
2023/05/21 08:06:57;;;;;;;761.37;704.07;;;32.10;5.40;;;;;;5011229;28;20592;-70
2023/05/21 08:09:23;;;;;;;791.73;732.07;;;31.40;7.40;;;;;;5010440;28;20215;-71
2023/05/21 08:11:48;;;;;;;763.13;703.43;;;31.20;1.00;;;;;;5010180;28;20215;-70
2023/05/21 08:14:14;;;;;;;740.83;686.07;;;32.00;1.00;;;;;;5001581;28;20196;-70
2023/05/21 08:16:40;;;;;;;708.90;657.07;;;32.50;1.00;;;;;;4990813;28;20191;-70
2023/05/21 08:19:05;;;;;;;785.60;725.83;;;33.50;1.00;;;;;;4990812;28;20477;-70
2023/05/21 08:21:31;;;;;;;745.23;690.20;;;33.30;1.00;;;;;;4990872;28;20442;-71
2023/05/21 08:23:58;;;;;;;820.80;751.80;;;32.40;1.00;;;;;;4997442;28;20191;-70
2023/05/21 08:26:24;;;;;;;752.93;698.73;;;31.90;1.00;;;;;;5011156;28;20350;-71
2023/05/21 08:28:50;;;;;;;694.33;644.90;;;31.30;1.00;;;;;;5012060;28;21005;-72
2023/05/21 08:31:17;;;;;;;804.07;741.73;;;31.10;1.00;;;;;;5010686;28;20270;-69
2023/05/21 08:33:50;;;;;;;759.63;704.53;;;32.30;1.00;;;;;;5010575;28;20556;-70
2023/05/21 08:36:19;;;;;;;635.50;593.73;;;33.30;1.00;;;;;;4997656;28;20581;-71
2023/05/21 08:38:44;;;;;;;681.67;634.77;;;32.70;1.00;;;;;;4992305;28;20862;-71
2023/05/21 08:41:11;;;;;;;773.00;715.90;;;32.10;1.00;;;;;;4990255;28;20432;-70
2023/05/21 08:43:37;;;;;;;743.50;690.53;;;33.00;1.00;;;;;;4989416;28;20180;-69
2023/05/21 08:46:04;;;;;;;764.23;705.37;;;34.50;1.00;;;;;;4987350;28;20456;-69
2023/05/21 08:48:30;;;;;;;718.23;666.63;;;35.00;1.00;;;;;;4993339;28;20439;-70
2023/05/21 08:50:58;;;;;;;679.73;631.00;;;35.60;1.00;;;;;;4994250;28;20558;-70
2023/05/21 08:53:26;;;;;;;850.17;778.90;;;35.90;1.00;;;;;;4993449;28;20999;-68
2023/05/21 08:55:54;;;;;;;795.30;730.20;;;36.00;1.00;;;;;;4992508;28;20420;-70
2023/05/21 08:58:20;;;;;;;822.40;757.57;;;36.70;1.00;;;;;;5006007;28;20484;-70
2023/05/21 09:00:46;;;;;;;769.53;714.60;;;36.60;1.00;;;;;;4999418;28;20476;-69
2023/05/21 09:03:13;;;;;;;761.43;702.00;;;36.60;1.00;;;;;;4981080;28;20444;-70
2023/05/21 09:05:40;;;;;;;931.83;845.40;;;35.30;1.00;;;;;;4993367;28;20189;-71
2023/05/21 09:08:14;;;;;;;798.40;735.30;;;33.50;1.00;;;;;;4989209;28;20910;-69
2023/05/21 09:10:48;;;;;;;837.77;770.73;;;32.00;1.00;;;;;;5016210;28;20501;-70
2023/05/21 09:13:25;;;;;;;917.17;836.07;;;30.60;1.00;;;;;;4990266;28;20424;-71
2023/05/21 09:15:50;;;;;;;801.27;739.93;;;29.50;1.00;;;;;;4972792;28;20415;-68
2023/05/21 09:18:16;;;;;;;987.47;901.77;;;28.20;1.00;;;;;;4972990;28;20421;-72
2023/05/21 09:20:42;;;;;;;922.47;841.70;;;27.30;4.30;;;;;;4973352;28;20213;-71
2023/05/21 09:23:15;;;;;;;749.23;689.40;;;27.00;4.30;;;;;;5011328;28;20229;-70
2023/05/21 09:25:47;;;;;;;822.57;752.93;;;26.50;5.00;;;;;;5010490;28;20911;-73
2023/05/21 09:28:14;;;;;;;827.33;760.43;;;25.80;6.20;;;;;;4985897;28;20910;-70
2023/05/21 09:30:48;;;;;;;669.90;621.30;;;25.70;6.80;;;;;;4974479;28;20472;-72
2023/05/21 09:33:28;;;;;;;858.47;786.03;;;25.40;6.60;;;;;;4977099;28;20507;-71
2023/05/21 09:35:54;;;;;;;813.37;747.17;;;25.40;6.60;;;;;;5013266;28;20435;-69
2023/05/21 09:38:24;;;;;;;775.63;714.70;;;25.20;7.30;;;;;;5013165;28;20407;-69
2023/05/21 09:40:50;;;;;;;864.83;792.93;;;24.70;8.20;;;;;;5011696;28;20826;-72
2023/05/21 09:43:19;;;;;;;682.50;634.93;;;25.20;8.70;;;;;;5011478;28;20427;-72
2023/05/21 09:45:55;;;;;;;791.20;729.77;;;25.00;8.80;;;;;;5013330;28;20176;-72
2023/05/21 09:48:50;;;;;;;748.60;691.97;;;25.10;8.90;;;;;;5013360;28;20912;-73
2023/05/21 09:51:18;;;;;;;863.17;789.33;;;25.40;9.10;;;;;;4981317;28;20463;-72
2023/05/21 09:53:53;;;;;;;910.93;832.80;;;25.60;8.20;;;;;;4993102;28;20431;-72
2023/05/21 09:56:23;;;;;;;844.60;777.43;;;25.60;8.50;;;;;;4993458;28;20396;-72
2023/05/21 09:59:00;;;;;;;707.60;654.33;;;25.80;8.30;;;;;;4993355;28;20408;-72
2023/05/21 10:01:27;;;;;;;692.23;643.73;;;25.70;8.10;;;;;;4996047;28;20450;-72
2023/05/21 10:03:57;;;;;;;786.97;722.77;;;25.10;9.60;;;;;;5011519;28;20419;-71
2023/05/21 10:06:28;;;;;;;700.60;652.47;;;25.20;10.90;;;;;;5013059;28;20403;-72
2023/05/21 10:08:56;;;;;;;827.77;764.13;;;25.10;11.40;;;;;;5011494;28;20430;-71
2023/05/21 10:11:25;;;;;;;925.10;846.07;;;25.30;12.20;;;;;;5011307;28;20442;-71
2023/05/21 10:14:14;;;;;;;739.93;685.30;;;25.20;13.60;;;;;;5006215;28;20510;-72
2023/05/21 10:16:41;;;;;;;777.37;718.77;;;24.90;15.40;;;;;;4986700;28;20519;-72
2023/05/21 10:19:09;;;;;;;805.60;739.73;;;25.20;14.90;;;;;;4992929;28;20431;-70
2023/05/21 10:21:35;;;;;;;769.07;712.23;;;25.30;15.60;;;;;;4992465;28;20439;-72
2023/05/21 10:24:02;;;;;;;955.80;870.53;;;25.00;17.60;;;;;;5008099;28;20427;-72
2023/05/21 10:26:28;;;;;;;972.70;888.13;;;25.10;18.70;;;;;;5012340;28;20525;-72
2023/05/21 10:28:56;;;;;;;748.03;695.17;;;24.80;17.90;;;;;;5012211;28;20789;-72
2023/05/21 10:31:22;;;;;;;702.77;652.90;;;24.70;17.20;;;;;;5010698;28;20450;-72
2023/05/21 10:33:52;;;;;;;913.03;832.67;;;25.10;16.00;;;;;;4998516;28;20459;-71
2023/05/21 10:36:22;;;;;;;849.23;779.40;;;25.50;15.80;;;;;;4992317;28;20431;-72
2023/05/21 10:38:48;;;;;;;939.20;853.93;;;25.20;16.90;;;;;;4991138;28;20423;-72
2023/05/21 10:41:18;;;;;;;1004.97;916.87;;;25.00;19.30;;;;;;4992334;28;20432;-72
2023/05/21 10:44:10;;;;;;;823.97;757.80;;;25.20;20.60;;;;;;4992333;28;20535;-69
2023/05/21 10:47:10;;;;;;;813.93;746.30;;;25.00;21.20;;;;;;4992466;28;20426;-73
2023/05/21 10:50:18;;;;;;;796.47;732.57;;;23.90;17.90;;;;;;5011884;28;20947;-71
2023/05/21 10:52:52;;;;;;;813.07;747.73;;;;;;;;;;5012256;28;20399;-69
2023/05/21 10:55:50;;;;;;;730.43;673.33;;;24.80;18.50;;;;;;5011777;28;20774;-69
2023/05/21 10:58:48;;;;;;;788.67;727.40;;;25.00;23.60;;;;;;4972898;28;20942;-70
2023/05/21 11:01:14;;;;;;;736.80;682.90;;;25.10;22.10;;;;;;4972157;28;20475;-69
2023/05/21 11:03:40;;;;;;;814.67;749.47;;;25.00;21.00;;;;;;4972814;28;20413;-69
2023/05/21 11:06:07;;;;;;;1007.70;917.07;;;25.30;26.00;;;;;;4984878;28;20515;-69
2023/05/21 11:08:37;;;;;;;820.50;751.03;;;25.60;15.80;;;;;;4992007;28;20230;-69
2023/05/21 11:11:03;;;;;;;881.93;810.80;;;25.70;14.60;;;;;;4991940;28;20464;-69
2023/05/21 11:13:48;;;;;;;778.17;716.77;;;25.70;14.80;;;;;;4991910;28;20935;-69
2023/05/21 11:16:15;;;;;;;713.70;662.33;;;25.60;15.80;;;;;;4991978;28;20466;-69
2023/05/21 11:18:41;;;;;;;857.53;784.83;;;25.70;15.40;;;;;;4991890;28;20427;-70
2023/05/21 11:21:15;;;;;;;802.87;739.20;;;25.60;15.80;;;;;;4991704;28;20800;-69
2023/05/21 11:23:49;;;;;;;901.70;825.20;;;25.90;15.40;;;;;;4991781;28;20177;-69
2023/05/21 11:26:45;;;;;;;950.80;867.20;;;;;;;;;;4990732;28;20428;-69
2023/05/21 11:29:11;;;;;;;849.00;778.83;;;26.30;14.10;;;;;;4936739;28;20469;-69
2023/05/21 11:31:39;;;;;;;720.30;666.23;;;26.80;14.60;;;;;;4972288;28;20463;-69
2023/05/21 11:34:18;;;;;;;917.93;838.83;;;26.40;16.30;;;;;;4972621;28;20541;-70
2023/05/21 11:36:48;;;;;;;784.43;716.83;;;26.30;17.80;;;;;;4971372;28;20428;-73
2023/05/21 11:39:21;;;;;;;765.57;704.20;;;26.10;17.20;;;;;;4976483;28;20947;-69
2023/05/21 11:41:56;;;;;;;763.60;702.50;;;26.50;17.50;;;;;;4990228;28;20455;-69
2023/05/21 11:44:44;;;;;;;739.90;680.83;;;26.60;18.50;;;;;;4991833;28;20499;-70
2023/05/21 11:47:17;;;;;;;785.60;723.93;;;26.70;17.90;;;;;;4991950;28;20518;-70
2023/05/21 11:49:44;;;;;;;676.40;625.83;;;26.60;20.40;;;;;;4991722;28;20451;-72
2023/05/21 11:52:11;;;;;;;762.77;704.03;;;26.70;20.90;;;;;;4991525;28;20466;-71
2023/05/21 11:54:44;;;;;;;637.63;594.17;;;26.40;21.00;;;;;;5007261;28;20431;-72
2023/05/21 11:57:11;;;;;;;850.60;775.33;;;26.60;21.50;;;;;;5011640;28;20808;-71
2023/05/21 11:59:36;;;;;;;864.40;790.40;;;26.20;20.40;;;;;;5005474;28;20419;-72
2023/05/21 12:02:03;;;;;;;784.47;722.87;;;26.30;19.00;;;;;;5019107;22;20585;-69
2023/05/21 12:04:30;;;;;;;944.90;861.10;;;26.80;17.50;;;;;;5011443;28;20572;-67
2023/05/21 12:06:57;;;;;;;658.07;609.63;;;26.80;16.80;;;;;;5012139;28;20407;-69
2023/05/21 12:09:23;;;;;;;756.23;696.70;;;27.00;16.60;;;;;;5011776;28;20512;-68
2023/05/21 12:11:50;;;;;;;848.37;777.20;;;26.50;17.20;;;;;;5011384;28;20927;-68
2023/05/21 12:14:16;;;;;;;824.00;756.60;;;26.60;17.10;;;;;;5011732;28;21021;-68